createdAt,value
2022-07-31T00:00:23.864Z,99504.22
2022-07-31T00:02:51.724Z,99501.88
2022-07-31T00:05:19.081Z,99498.97
2022-07-31T00:07:46.552Z,99498.47
2022-07-31T00:10:14.293Z,99496.38
2022-07-31T00:12:41.748Z,99497.22
2022-07-31T00:15:10.242Z,99499.09
2022-07-31T00:17:38.828Z,99497.22
2022-07-31T00:20:06.992Z,99488.34
2022-07-31T00:22:35.480Z,99486.84
2022-07-31T00:25:03.391Z,99474.72
2022-07-31T00:27:30.712Z,99477.44
2022-07-31T00:29:58.117Z,99486.84
2022-07-31T00:32:25.949Z,99485.47
2022-07-31T00:34:53.311Z,99484.81
2022-07-31T00:37:20.671Z,99484.97
2022-07-31T00:39:49.491Z,99486.47
2022-07-31T00:42:21.184Z,99486.56
2022-07-31T00:44:49.923Z,99490.63
2022-07-31T00:47:18.696Z,99486.00
2022-07-31T00:49:51.728Z,99490.22
2022-07-31T00:52:19.175Z,99489.66
2022-07-31T00:54:46.563Z,99487.00
2022-07-31T00:57:15.257Z,99493.25
2022-07-31T00:59:43.739Z,99480.88
2022-07-31T01:02:11.202Z,99490.50
2022-07-31T01:04:41.829Z,99493.25
2022-07-31T01:07:11.987Z,99490.31
2022-07-31T01:09:39.705Z,99495.44
2022-07-31T01:12:13.756Z,99495.00
2022-07-31T01:14:57.964Z,99504.87
2022-07-31T01:17:27.583Z,99501.75
2022-07-31T01:19:55.460Z,99502.50
2022-07-31T01:22:33.830Z,99498.56
2022-07-31T01:25:33.051Z,99498.31
2022-07-31T01:28:10.814Z,99504.09
2022-07-31T01:31:27.467Z,99503.63
2022-07-31T01:34:08.263Z,99511.41
2022-07-31T01:36:40.001Z,99508.97
2022-07-31T01:39:07.584Z,99512.66
2022-07-31T01:41:38.792Z,99508.56
2022-07-31T01:44:07.234Z,99514.09
2022-07-31T01:46:43.633Z,99516.19
2022-07-31T01:49:13.257Z,99519.19
2022-07-31T01:51:42.204Z,99518.88
2022-07-31T01:54:10.526Z,99520.81
2022-07-31T01:56:39.053Z,99518.31
2022-07-31T01:59:20.056Z,99518.41
2022-07-31T02:01:59.345Z,99512.19
2022-07-31T02:04:29.648Z,99526.69
2022-07-31T02:06:58.460Z,99516.72
2022-07-31T02:09:26.159Z,99516.31
2022-07-31T02:11:55.002Z,99517.19
2022-07-31T02:14:24.271Z,99516.53
2022-07-31T02:16:51.706Z,99508.56
2022-07-31T02:19:21.358Z,99510.00
2022-07-31T02:21:50.641Z,99497.69
2022-07-31T02:24:18.211Z,99501.09
2022-07-31T02:26:47.062Z,99484.34
2022-07-31T02:29:19.631Z,99480.38
2022-07-31T02:32:11.618Z,99478.03
2022-07-31T02:34:37.352Z,99467.63
2022-07-31T02:37:05.500Z,99469.13
2022-07-31T02:39:34.734Z,99470.72
2022-07-31T02:42:03.434Z,99466.69
2022-07-31T02:44:32.411Z,99465.00
2022-07-31T02:47:02.509Z,99456.22
2022-07-31T02:49:30.458Z,99462.78
2022-07-31T02:51:58.584Z,99465.38
2022-07-31T02:54:26.391Z,99460.84
2022-07-31T02:56:54.061Z,99467.47
2022-07-31T02:59:24.827Z,99468.84
2022-07-31T03:01:54.366Z,99479.53
2022-07-31T03:04:23.108Z,99471.34
2022-07-31T03:06:50.529Z,99480.91
2022-07-31T03:09:17.920Z,99478.81
2022-07-31T03:11:45.843Z,99480.91
2022-07-31T03:14:13.692Z,99479.69
2022-07-31T03:16:41.249Z,99479.41
2022-07-31T03:19:09.203Z,99470.22
2022-07-31T03:21:36.679Z,99472.00
2022-07-31T03:24:04.620Z,99470.69
2022-07-31T03:26:33.068Z,99472.66
2022-07-31T03:29:01.046Z,99472.25
2022-07-31T03:31:30.134Z,99467.69
2022-07-31T03:33:58.655Z,99478.16
2022-07-31T03:36:27.119Z,99471.03
2022-07-31T03:38:54.542Z,99471.34
2022-07-31T03:41:22.676Z,99467.00
2022-07-31T03:43:50.841Z,99465.75
2022-07-31T03:46:20.148Z,99468.47
2022-07-31T03:48:48.594Z,99462.03
2022-07-31T03:51:16.255Z,99469.56
2022-07-31T03:53:44.188Z,99466.53
2022-07-31T03:56:13.144Z,99470.41
2022-07-31T03:58:40.672Z,99467.22
2022-07-31T04:01:10.458Z,99474.19
2022-07-31T04:03:40.074Z,99472.28
2022-07-31T04:06:08.445Z,99468.72
2022-07-31T04:08:36.157Z,99466.75
2022-07-31T04:11:03.884Z,99470.06
2022-07-31T04:13:31.297Z,99471.50
2022-07-31T04:15:58.745Z,99467.31
2022-07-31T04:18:27.069Z,99477.66
2022-07-31T04:20:54.495Z,99481.22
2022-07-31T04:23:21.909Z,99482.56
2022-07-31T04:25:51.722Z,99479.66
2022-07-31T04:28:21.911Z,99474.63
2022-07-31T04:30:49.314Z,99474.91
2022-07-31T04:33:18.241Z,99474.53
2022-07-31T04:35:46.176Z,99482.47
2022-07-31T04:38:14.311Z,99484.69
2022-07-31T04:40:41.996Z,99473.47
2022-07-31T04:43:09.446Z,99469.38
2022-07-31T04:45:37.703Z,99475.56
2022-07-31T04:48:05.738Z,99477.06
2022-07-31T04:50:33.464Z,99473.28
2022-07-31T04:53:01.952Z,99471.31
2022-07-31T04:55:29.904Z,99472.69
2022-07-31T04:57:57.390Z,99463.38
2022-07-31T05:00:24.850Z,99470.62
2022-07-31T05:02:52.704Z,99470.59
2022-07-31T05:05:20.189Z,99475.66
2022-07-31T05:07:47.784Z,99476.72
2022-07-31T05:10:34.716Z,99486.19
2022-07-31T05:13:02.281Z,99478.47
2022-07-31T05:15:31.288Z,99477.25
2022-07-31T05:17:58.696Z,99489.63
2022-07-31T05:20:28.104Z,99476.47
2022-07-31T05:22:57.611Z,99480.69
2022-07-31T05:25:29.653Z,99478.44
2022-07-31T05:27:57.040Z,99487.59
2022-07-31T05:30:30.593Z,99486.41
2022-07-31T05:32:58.571Z,99479.75
2022-07-31T05:35:26.514Z,99485.19
2022-07-31T05:37:53.968Z,99485.88
2022-07-31T05:40:23.585Z,99490.37
2022-07-31T05:42:53.623Z,99500.72
2022-07-31T05:45:21.246Z,99493.03
2022-07-31T05:47:48.644Z,99491.50
2022-07-31T05:50:17.782Z,99491.16
2022-07-31T05:52:46.015Z,99497.19
2022-07-31T05:55:15.148Z,99504.91
2022-07-31T05:57:43.520Z,99503.03
2022-07-31T06:00:11.801Z,99501.47
2022-07-31T06:02:39.426Z,99510.41
2022-07-31T06:05:07.667Z,99503.25
2022-07-31T06:07:35.487Z,99510.12
2022-07-31T06:10:04.430Z,99512.53
2022-07-31T06:12:32.158Z,99509.53
2022-07-31T06:15:01.062Z,99511.84
2022-07-31T06:17:44.194Z,99501.75
2022-07-31T06:20:13.993Z,99503.53
2022-07-31T06:22:45.448Z,99502.91
2022-07-31T06:25:13.458Z,99514.72
2022-07-31T06:27:42.474Z,99521.53
2022-07-31T06:30:10.796Z,99522.19
2022-07-31T06:32:38.986Z,99526.00
2022-07-31T06:35:07.195Z,99524.88
2022-07-31T06:37:35.445Z,99519.00
2022-07-31T06:40:03.288Z,99521.41
2022-07-31T06:42:33.683Z,99527.41
2022-07-31T06:45:15.953Z,99525.41
2022-07-31T06:47:55.216Z,99531.25
2022-07-31T06:50:23.061Z,99533.91
2022-07-31T06:52:52.172Z,99529.22
2022-07-31T06:55:19.780Z,99530.56
2022-07-31T06:57:47.632Z,99529.59
2022-07-31T07:00:20.630Z,99533.41
2022-07-31T07:02:49.167Z,99534.50
2022-07-31T07:05:16.558Z,99531.91
2022-07-31T07:07:44.388Z,99528.44
2022-07-31T07:10:12.072Z,99520.09
2022-07-31T07:12:41.714Z,99540.12
2022-07-31T07:15:11.022Z,99522.75
2022-07-31T07:17:39.269Z,99532.66
2022-07-31T07:20:10.497Z,99511.09
2022-07-31T07:22:37.832Z,99525.56
2022-07-31T07:25:06.958Z,99533.66
2022-07-31T07:27:34.463Z,99514.88
2022-07-31T07:30:02.611Z,99526.13
2022-07-31T07:32:30.390Z,99512.28
2022-07-31T07:34:59.684Z,99510.66
2022-07-31T07:37:30.968Z,99515.88
2022-07-31T07:40:08.227Z,99503.56
2022-07-31T07:42:35.917Z,99508.38
2022-07-31T07:45:06.646Z,99511.06
2022-07-31T07:48:05.294Z,99509.34
2022-07-31T07:50:27.014Z,99509.94
2022-07-31T07:52:58.073Z,99510.56
2022-07-31T07:55:27.674Z,99522.78
2022-07-31T07:58:10.105Z,99510.41
2022-07-31T08:00:43.082Z,99511.09
2022-07-31T08:03:49.920Z,99513.87
2022-07-31T08:05:58.735Z,99514.25
2022-07-31T08:08:26.885Z,99515.81
2022-07-31T08:10:57.051Z,99521.50
2022-07-31T08:13:24.630Z,99515.75
2022-07-31T08:15:55.171Z,99527.06
2022-07-31T08:18:23.205Z,99539.72
2022-07-31T08:20:55.457Z,99537.81
2022-07-31T08:23:22.819Z,99538.47
2022-07-31T08:25:51.399Z,99545.38
2022-07-31T08:28:19.312Z,99530.91
2022-07-31T08:30:47.149Z,99524.94
2022-07-31T08:33:15.405Z,99529.09
2022-07-31T08:35:44.704Z,99519.72
2022-07-31T08:38:18.748Z,99528.69
2022-07-31T08:40:47.484Z,99527.34
2022-07-31T08:44:02.254Z,99531.91
2022-07-31T08:46:03.327Z,99532.09
2022-07-31T08:48:33.241Z,99534.56
2022-07-31T08:51:03.384Z,99533.00
2022-07-31T08:53:36.834Z,99557.91
2022-07-31T08:56:06.049Z,99538.59
2022-07-31T08:58:37.346Z,99543.56
2022-07-31T09:01:08.931Z,99554.28
2022-07-31T09:03:36.740Z,99544.34
2022-07-31T09:06:06.079Z,99561.44
2022-07-31T09:08:37.943Z,99564.09
2022-07-31T09:11:10.872Z,99555.78
2022-07-31T09:13:38.668Z,99548.00
2022-07-31T09:16:07.704Z,99562.91
2022-07-31T09:18:35.246Z,99551.81
2022-07-31T09:21:05.770Z,99573.78
2022-07-31T09:23:33.600Z,99568.88
2022-07-31T09:26:03.224Z,99575.13
2022-07-31T09:28:42.065Z,99576.69
2022-07-31T09:31:11.003Z,99584.47
2022-07-31T09:33:45.789Z,99569.56
2022-07-31T09:36:22.580Z,99567.03
2022-07-31T09:38:50.025Z,99567.09
2022-07-31T09:41:55.851Z,99567.97
2022-07-31T09:44:11.021Z,99572.09
2022-07-31T09:46:42.938Z,99563.28
2022-07-31T09:49:10.738Z,99556.59
2022-07-31T09:51:40.027Z,99562.12
2022-07-31T09:54:08.556Z,99548.50
2022-07-31T09:56:38.821Z,99565.47
2022-07-31T09:59:08.843Z,99556.44
2022-07-31T10:01:41.221Z,99550.81
2022-07-31T10:04:10.310Z,99561.06
2022-07-31T10:06:38.012Z,99566.41
2022-07-31T10:09:07.625Z,99549.56
2022-07-31T10:11:37.927Z,99565.16
2022-07-31T10:14:10.156Z,99556.44
2022-07-31T10:16:40.106Z,99553.78
2022-07-31T10:19:12.203Z,99548.97
2022-07-31T10:21:47.995Z,99553.09
2022-07-31T10:24:16.771Z,99564.19
2022-07-31T10:27:00.338Z,99552.16
2022-07-31T10:29:32.332Z,99549.41
2022-07-31T10:32:01.235Z,99553.22
2022-07-31T10:34:29.040Z,99553.13
2022-07-31T10:37:05.034Z,99559.53
2022-07-31T10:39:53.187Z,99555.12
2022-07-31T10:42:51.515Z,99553.56
2022-07-31T10:45:19.307Z,99554.38
2022-07-31T10:47:57.751Z,99557.88
2022-07-31T10:50:27.145Z,99563.38
2022-07-31T10:53:00.197Z,99564.69
2022-07-31T10:55:30.036Z,99542.81
2022-07-31T10:58:07.242Z,99569.22
2022-07-31T11:00:36.066Z,99586.06
2022-07-31T11:03:21.828Z,99588.91
2022-07-31T11:06:01.728Z,99582.81
2022-07-31T11:08:46.928Z,99572.56
2022-07-31T11:11:15.694Z,99586.44
2022-07-31T11:13:50.181Z,99594.38
2022-07-31T11:16:19.702Z,99600.06
2022-07-31T11:18:58.245Z,99597.94
2022-07-31T11:21:40.456Z,99595.31
2022-07-31T11:24:19.147Z,99602.19
2022-07-31T11:26:55.160Z,99601.19
2022-07-31T11:30:01.876Z,99610.63
2022-07-31T11:32:25.681Z,99598.75
2022-07-31T11:34:55.668Z,99610.78
2022-07-31T11:37:56.626Z,99611.72
2022-07-31T11:40:19.612Z,99617.19
2022-07-31T11:43:10.290Z,99630.22
2022-07-31T11:45:48.626Z,99631.91
2022-07-31T11:48:17.810Z,99636.13
2022-07-31T11:50:48.552Z,99624.53
2022-07-31T11:53:16.109Z,99615.72
2022-07-31T11:55:51.284Z,99613.41
2022-07-31T11:58:20.439Z,99623.34
2022-07-31T12:00:54.234Z,99625.75
2022-07-31T12:03:24.471Z,99630.44
2022-07-31T12:05:52.595Z,99639.19
2022-07-31T12:08:20.944Z,99622.66
2022-07-31T12:10:48.819Z,99623.19
2022-07-31T12:13:20.096Z,99621.81
2022-07-31T12:16:04.302Z,99621.97
2022-07-31T12:18:53.767Z,99610.84
2022-07-31T12:21:21.384Z,99621.03
2022-07-31T12:23:53.031Z,99626.94
2022-07-31T12:26:32.703Z,99611.19
2022-07-31T12:29:05.058Z,99628.31
2022-07-31T12:31:49.684Z,99620.09
2022-07-31T12:34:31.182Z,99637.47
2022-07-31T12:37:05.329Z,99632.72
2022-07-31T12:39:54.111Z,99629.06
2022-07-31T12:42:40.843Z,99646.50
2022-07-31T12:45:18.393Z,99649.56
2022-07-31T12:47:52.004Z,99629.94
2022-07-31T12:50:21.633Z,99647.59
2022-07-31T12:52:48.972Z,99649.19
2022-07-31T12:55:17.278Z,99651.28
2022-07-31T12:57:51.721Z,99642.84
2022-07-31T13:00:22.654Z,99636.97
2022-07-31T13:02:51.873Z,99644.59
2022-07-31T13:05:19.967Z,99630.03
2022-07-31T13:07:47.894Z,99636.19
2022-07-31T13:10:21.411Z,99630.38
2022-07-31T13:12:52.405Z,99638.09
2022-07-31T13:15:29.384Z,99641.69
2022-07-31T13:17:57.563Z,99657.19
2022-07-31T13:20:25.704Z,99646.72
2022-07-31T13:22:53.094Z,99671.38
2022-07-31T13:25:20.486Z,99660.31
2022-07-31T13:27:48.502Z,99657.78
2022-07-31T13:30:16.244Z,99658.97
2022-07-31T13:32:43.579Z,99653.50
2022-07-31T13:35:26.861Z,99653.81
2022-07-31T13:37:56.715Z,99646.62
2022-07-31T13:40:43.823Z,99642.41
2022-07-31T13:43:11.506Z,99646.38
2022-07-31T13:45:39.482Z,99650.09
2022-07-31T13:48:09.204Z,99638.13
2022-07-31T13:50:39.514Z,99643.13
2022-07-31T13:53:07.785Z,99639.66
2022-07-31T13:55:36.274Z,99637.13
2022-07-31T13:58:04.356Z,99632.44
2022-07-31T14:00:32.274Z,99631.31
2022-07-31T14:03:00.115Z,99628.59
2022-07-31T14:05:27.991Z,99621.31
2022-07-31T14:07:56.150Z,99634.84
2022-07-31T14:10:27.915Z,99627.31
2022-07-31T14:12:55.560Z,99624.75
2022-07-31T14:15:25.345Z,99617.97
2022-07-31T14:17:54.948Z,99620.06
2022-07-31T14:20:22.280Z,99617.66
2022-07-31T14:22:50.003Z,99626.41
2022-07-31T14:25:17.645Z,99606.72
2022-07-31T14:27:45.935Z,99621.44
2022-07-31T14:30:15.143Z,99624.62
2022-07-31T14:32:48.544Z,99628.31
2022-07-31T14:35:15.973Z,99634.75
2022-07-31T14:37:43.386Z,99629.59
2022-07-31T14:40:11.677Z,99633.03
2022-07-31T14:42:39.359Z,99635.06
2022-07-31T14:45:07.258Z,99637.94
2022-07-31T14:47:35.943Z,99643.31
2022-07-31T14:50:09.871Z,99641.13
2022-07-31T14:52:39.648Z,99643.84
2022-07-31T14:55:07.404Z,99628.28
2022-07-31T14:57:34.753Z,99638.72
2022-07-31T15:00:02.378Z,99632.88
2022-07-31T15:02:29.824Z,99621.13
2022-07-31T15:04:57.204Z,99618.72
2022-07-31T15:07:46.207Z,99622.25
2022-07-31T15:10:12.514Z,99618.91
2022-07-31T15:12:40.176Z,99613.59
2022-07-31T15:15:08.096Z,99607.75
2022-07-31T15:17:35.515Z,99611.50
2022-07-31T15:20:03.927Z,99609.97
2022-07-31T15:22:31.428Z,99601.81
2022-07-31T15:24:58.831Z,99599.56
2022-07-31T15:27:26.482Z,99605.88
2022-07-31T15:30:05.515Z,99599.28
2022-07-31T15:32:36.618Z,99602.03
2022-07-31T15:35:05.817Z,99606.97
2022-07-31T15:37:34.954Z,99589.16
2022-07-31T15:40:04.763Z,99594.84
2022-07-31T15:42:32.651Z,99601.66
2022-07-31T15:45:00.166Z,99596.00
2022-07-31T15:47:27.859Z,99594.78
2022-07-31T15:49:55.452Z,99582.50
2022-07-31T15:52:22.854Z,99591.38
2022-07-31T15:54:51.565Z,99585.25
2022-07-31T15:57:20.977Z,99597.53
2022-07-31T15:59:49.746Z,99593.34
2022-07-31T16:02:17.491Z,99596.31
2022-07-31T16:04:51.669Z,99591.09
2022-07-31T16:08:32.745Z,99597.09
2022-07-31T16:10:15.791Z,99585.97
2022-07-31T16:12:48.307Z,99595.03
2022-07-31T16:15:17.071Z,99601.75
2022-07-31T16:17:45.236Z,99599.84
2022-07-31T16:20:25.893Z,99603.22
2022-07-31T16:22:56.395Z,99596.75
2022-07-31T16:25:24.961Z,99594.56
2022-07-31T16:27:52.718Z,99599.53
2022-07-31T16:30:20.532Z,99602.44
2022-07-31T16:32:48.440Z,99581.78
2022-07-31T16:35:16.152Z,99594.53
2022-07-31T16:37:51.680Z,99591.00
2022-07-31T16:40:27.036Z,99597.19
2022-07-31T16:42:57.582Z,99597.56
2022-07-31T16:45:24.937Z,99592.97
2022-07-31T16:47:52.495Z,99604.66
2022-07-31T16:50:20.167Z,99602.38
2022-07-31T16:52:51.297Z,99607.78
2022-07-31T16:55:55.713Z,99599.22
2022-07-31T16:58:11.536Z,99604.84
2022-07-31T17:00:39.650Z,99601.19
2022-07-31T17:03:59.204Z,99605.88
2022-07-31T17:05:55.459Z,99609.66
2022-07-31T17:08:22.792Z,99607.50
2022-07-31T17:10:54.052Z,99601.28
2022-07-31T17:13:22.404Z,99600.31
2022-07-31T17:15:49.914Z,99597.47
2022-07-31T17:18:17.235Z,99600.75
2022-07-31T17:20:47.060Z,99588.59
2022-07-31T17:23:14.598Z,99595.13
2022-07-31T17:25:43.416Z,99589.69
2022-07-31T17:28:15.240Z,99589.84
2022-07-31T17:30:44.946Z,99582.41
2022-07-31T17:33:13.031Z,99589.34
2022-07-31T17:35:40.420Z,99590.94
2022-07-31T17:38:07.915Z,99589.03
2022-07-31T17:40:44.234Z,99586.78
2022-07-31T17:43:11.833Z,99587.06
2022-07-31T17:46:05.375Z,99595.50
2022-07-31T17:48:29.040Z,99608.88
2022-07-31T17:50:57.253Z,99608.22
2022-07-31T17:53:24.594Z,99604.50
2022-07-31T17:56:13.129Z,99607.25
2022-07-31T17:58:43.023Z,99605.88
2022-07-31T18:01:10.444Z,99608.97
2022-07-31T18:03:38.078Z,99607.59
2022-07-31T18:06:05.455Z,99611.09
2022-07-31T18:08:32.795Z,99617.03
2022-07-31T18:11:00.430Z,99615.56
2022-07-31T18:13:27.779Z,99617.22
2022-07-31T18:15:55.109Z,99625.53
2022-07-31T18:18:22.717Z,99626.19
2022-07-31T18:20:50.053Z,99618.38
2022-07-31T18:23:17.480Z,99624.44
2022-07-31T18:25:45.268Z,99628.06
2022-07-31T18:28:12.628Z,99625.09
2022-07-31T18:30:41.723Z,99621.94
2022-07-31T18:33:10.833Z,99625.09
2022-07-31T18:35:38.222Z,99625.72
2022-07-31T18:38:05.593Z,99633.88
2022-07-31T18:40:33.155Z,99634.09
2022-07-31T18:43:00.763Z,99638.84
2022-07-31T18:45:28.105Z,99639.62
2022-07-31T18:47:55.966Z,99641.22
2022-07-31T18:51:02.438Z,99641.38
2022-07-31T18:53:11.226Z,99646.81
2022-07-31T18:55:38.544Z,99643.75
2022-07-31T18:58:06.489Z,99648.28
2022-07-31T19:00:34.248Z,99655.63
2022-07-31T19:03:02.048Z,99655.78
2022-07-31T19:05:29.500Z,99661.47
2022-07-31T19:07:57.342Z,99663.44
2022-07-31T19:10:29.329Z,99661.69
2022-07-31T19:12:59.528Z,99668.94
2022-07-31T19:15:26.978Z,99668.16
2022-07-31T19:17:54.862Z,99677.34
2022-07-31T19:20:56.414Z,99681.75
2022-07-31T19:23:15.850Z,99678.25
2022-07-31T19:26:02.226Z,99685.88
2022-07-31T19:28:32.218Z,99682.50
2022-07-31T19:30:59.992Z,99687.06
2022-07-31T19:33:27.438Z,99688.44
2022-07-31T19:36:00.948Z,99692.34
2022-07-31T19:38:30.570Z,99689.44
2022-07-31T19:40:57.993Z,99692.97
2022-07-31T19:43:25.503Z,99688.44
2022-07-31T19:46:02.450Z,99696.50
2022-07-31T19:48:40.802Z,99692.88
2022-07-31T19:51:09.557Z,99693.84
2022-07-31T19:53:37.459Z,99690.13
2022-07-31T19:56:06.093Z,99685.88
2022-07-31T19:58:35.365Z,99691.34
2022-07-31T20:01:07.096Z,99687.56
2022-07-31T20:03:35.476Z,99685.34
2022-07-31T20:06:03.639Z,99683.53
2022-07-31T20:08:33.486Z,99683.63
2022-07-31T20:11:04.029Z,99678.47
2022-07-31T20:13:33.681Z,99673.16
2022-07-31T20:16:01.673Z,99668.88
2022-07-31T20:18:29.762Z,99674.25
2022-07-31T20:21:00.826Z,99669.78
2022-07-31T20:23:28.695Z,99660.91
2022-07-31T20:25:56.048Z,99666.94
2022-07-31T20:28:23.392Z,99668.13
2022-07-31T20:30:51.061Z,99665.94
2022-07-31T20:33:18.589Z,99668.09
2022-07-31T20:35:49.275Z,99665.50
2022-07-31T20:38:18.820Z,99670.63
2022-07-31T20:40:53.986Z,99662.47
2022-07-31T20:43:27.416Z,99658.75
2022-07-31T20:45:58.976Z,99662.56
2022-07-31T20:48:31.899Z,99662.00
2022-07-31T20:51:00.319Z,99657.97
2022-07-31T20:53:28.814Z,99661.97
2022-07-31T20:55:56.401Z,99665.63
2022-07-31T20:58:24.490Z,99672.31
2022-07-31T21:00:52.956Z,99673.03
2022-07-31T21:03:20.896Z,99674.56
2022-07-31T21:05:48.414Z,99671.28
2022-07-31T21:08:16.750Z,99674.84
2022-07-31T21:10:44.281Z,99669.53
2022-07-31T21:13:11.686Z,99669.09
2022-07-31T21:15:43.155Z,99668.22
2022-07-31T21:18:16.934Z,99667.97
2022-07-31T21:20:49.913Z,99667.59
2022-07-31T21:23:17.976Z,99669.75
2022-07-31T21:25:45.684Z,99674.44
2022-07-31T21:28:13.198Z,99670.47
2022-07-31T21:30:41.580Z,99670.28
2022-07-31T21:33:09.931Z,99672.63
2022-07-31T21:35:39.783Z,99674.31
2022-07-31T21:38:10.334Z,99680.06
2022-07-31T21:40:40.275Z,99671.38
2022-07-31T21:43:08.914Z,99686.97
2022-07-31T21:45:48.984Z,99677.72
2022-07-31T21:48:24.865Z,99688.84
2022-07-31T21:50:53.123Z,99688.31
2022-07-31T21:53:20.773Z,99692.12
2022-07-31T21:55:49.003Z,99698.69
2022-07-31T21:58:17.093Z,99703.94
2022-07-31T22:00:45.227Z,99698.25
2022-07-31T22:03:12.931Z,99699.97
2022-07-31T22:05:58.911Z,99704.41
2022-07-31T22:08:26.604Z,99704.50
2022-07-31T22:10:54.371Z,99705.66
2022-07-31T22:13:21.771Z,99711.37
2022-07-31T22:15:55.425Z,99712.31
2022-07-31T22:18:32.240Z,99710.53
2022-07-31T22:21:02.770Z,99714.00
2022-07-31T22:23:30.552Z,99702.97
2022-07-31T22:25:58.434Z,99710.38
2022-07-31T22:28:27.024Z,99704.94
2022-07-31T22:30:55.691Z,99696.78
2022-07-31T22:33:23.606Z,99694.06
2022-07-31T22:36:00.381Z,99700.53
2022-07-31T22:38:31.154Z,99689.84
2022-07-31T22:40:59.459Z,99695.16
2022-07-31T22:44:10.443Z,99696.22
2022-07-31T22:46:15.324Z,99701.03
2022-07-31T22:48:44.635Z,99702.06
2022-07-31T22:51:14.998Z,99698.00
2022-07-31T22:53:43.996Z,99698.69
2022-07-31T22:56:11.403Z,99695.25
2022-07-31T22:58:38.806Z,99700.31
2022-07-31T23:01:06.444Z,99700.91
2022-07-31T23:03:34.011Z,99697.31
2022-07-31T23:06:05.311Z,99701.50
2022-07-31T23:08:54.568Z,99693.31
2022-07-31T23:11:23.347Z,99700.12
2022-07-31T23:13:51.647Z,99692.78
2022-07-31T23:16:20.351Z,99695.75
2022-07-31T23:18:48.652Z,99696.91
2022-07-31T23:21:17.151Z,99694.34
2022-07-31T23:23:48.609Z,99688.63
2022-07-31T23:26:23.919Z,99690.19
2022-07-31T23:28:52.176Z,99687.34
2022-07-31T23:31:20.473Z,99684.47
2022-07-31T23:33:48.484Z,99682.47
2022-07-31T23:36:16.415Z,99680.56
2022-07-31T23:38:44.692Z,99677.44
2022-07-31T23:41:12.387Z,99689.00
2022-07-31T23:43:39.881Z,99692.78
2022-07-31T23:46:07.565Z,99675.81
2022-07-31T23:48:35.518Z,99686.06
2022-07-31T23:51:03.477Z,99677.44
2022-07-31T23:53:31.107Z,99681.00
2022-07-31T23:55:58.461Z,99682.59
2022-07-31T23:58:25.820Z,99678.63
